createdAt,value
2023-02-03T00:02:10.476Z,14.65
2023-02-03T00:04:37.481Z,20.98
2023-02-03T00:07:04.611Z,19.30
2023-02-03T00:09:31.645Z,14.55
2023-02-03T00:11:58.645Z,12.98
2023-02-03T00:14:25.641Z,14.77
2023-02-03T00:16:52.665Z,19.20
2023-02-03T00:19:19.590Z,13.70
2023-02-03T00:21:46.582Z,17.25
2023-02-03T00:24:13.657Z,14.63
2023-02-03T00:26:43.846Z,16.10
2023-02-03T00:29:11.299Z,17.83
2023-02-03T00:31:38.478Z,21.85
2023-02-03T00:34:05.899Z,10.35
2023-02-03T00:36:33.251Z,17.20
2023-02-03T00:39:01.561Z,13.95
2023-02-03T00:41:31.749Z,16.30
2023-02-03T00:43:59.072Z,14.77
2023-02-03T00:46:26.124Z,13.65
2023-02-03T00:48:53.233Z,11.63
2023-02-03T00:51:21.465Z,12.15
2023-02-03T00:53:49.237Z,16.73
2023-02-03T00:56:16.205Z,13.75
2023-02-03T00:58:44.624Z,17.88
2023-02-03T01:01:11.823Z,14.85
2023-02-03T01:03:39.256Z,15.82
2023-02-03T01:06:10.405Z,13.73
2023-02-03T01:08:37.451Z,14.27
2023-02-03T01:11:14.827Z,10.20
2023-02-03T01:13:41.920Z,17.13
2023-02-03T01:16:13.997Z,14.98
2023-02-03T01:18:42.326Z,13.23
2023-02-03T01:21:13.454Z,17.85
2023-02-03T01:23:40.865Z,9.77
2023-02-03T01:26:11.373Z,18.33
2023-02-03T01:28:38.662Z,13.20
2023-02-03T01:31:15.904Z,11.07
2023-02-03T01:33:46.336Z,16.98
2023-02-03T01:36:17.307Z,14.02
2023-02-03T01:38:45.314Z,17.55
2023-02-03T01:41:15.056Z,18.73
2023-02-03T01:43:45.019Z,16.30
2023-02-03T01:46:26.981Z,18.63
2023-02-03T01:48:56.730Z,10.63
2023-02-03T01:51:24.641Z,12.55
2023-02-03T01:53:54.338Z,9.32
2023-02-03T01:56:22.348Z,16.77
2023-02-03T01:58:49.939Z,12.40
2023-02-03T02:01:19.487Z,12.35
2023-02-03T02:03:55.163Z,11.68
2023-02-03T02:08:52.061Z,14.95
2023-02-03T02:11:23.254Z,11.93
2023-02-03T02:13:52.141Z,10.93
2023-02-03T02:16:21.878Z,12.15
2023-02-03T02:18:57.485Z,10.43
2023-02-03T02:21:30.645Z,18.05
2023-02-03T02:24:11.340Z,14.73
2023-02-03T02:26:50.873Z,11.10
2023-02-03T02:29:37.045Z,13.00
2023-02-03T02:32:25.711Z,15.88
2023-02-03T02:34:55.478Z,11.68
2023-02-03T02:37:59.500Z,14.32
2023-02-03T02:41:02.151Z,12.85
2023-02-03T02:43:41.601Z,12.18
2023-02-03T02:46:19.581Z,15.45
2023-02-03T02:49:14.048Z,16.00
2023-02-03T02:51:43.971Z,12.70
2023-02-03T02:54:18.725Z,8.68
2023-02-03T02:56:49.756Z,13.20
2023-02-03T02:59:16.924Z,11.45
2023-02-03T03:01:44.865Z,11.88
2023-02-03T03:04:16.590Z,14.48
2023-02-03T03:07:10.911Z,11.48
2023-02-03T03:09:45.679Z,10.65
2023-02-03T03:12:17.643Z,11.75
2023-02-03T03:14:48.634Z,15.43
2023-02-03T03:17:24.925Z,9.23
2023-02-03T03:19:56.226Z,10.30
2023-02-03T03:22:30.737Z,12.00
2023-02-03T03:25:12.691Z,17.10
2023-02-03T03:27:44.849Z,12.50
2023-02-03T03:30:16.935Z,8.18
2023-02-03T03:32:44.639Z,9.40
2023-02-03T03:35:11.666Z,10.63
2023-02-03T03:37:45.156Z,10.27
2023-02-03T03:40:12.194Z,17.77
2023-02-03T03:42:51.121Z,10.05
2023-02-03T03:45:44.379Z,12.93
2023-02-03T03:48:21.650Z,12.70
2023-02-03T03:51:10.665Z,13.38
2023-02-03T03:53:41.158Z,12.82
2023-02-03T03:56:14.325Z,13.15
2023-02-03T03:58:45.369Z,13.27
2023-02-03T04:01:15.467Z,11.02
2023-02-03T04:03:48.337Z,11.95
2023-02-03T04:06:16.111Z,12.18
2023-02-03T04:08:43.126Z,10.85
2023-02-03T04:11:10.116Z,12.88
2023-02-03T04:13:37.085Z,6.50
2023-02-03T04:16:04.201Z,8.23
2023-02-03T04:18:31.242Z,9.75
2023-02-03T04:20:58.224Z,9.10
2023-02-03T04:23:25.154Z,11.13
2023-02-03T04:25:52.167Z,11.13
2023-02-03T04:28:19.115Z,11.30
2023-02-03T04:30:46.157Z,9.77
2023-02-03T04:33:13.132Z,11.10
2023-02-03T04:35:40.119Z,11.15
2023-02-03T04:38:07.031Z,10.43
2023-02-03T04:40:35.120Z,11.82
2023-02-03T04:43:07.761Z,12.77
2023-02-03T04:45:34.827Z,11.55
2023-02-03T04:48:01.809Z,13.73
2023-02-03T04:50:29.044Z,10.40
2023-02-03T04:52:56.138Z,13.82
2023-02-03T04:55:23.087Z,10.15
2023-02-03T04:57:54.727Z,11.45
2023-02-03T05:00:21.811Z,13.30
2023-02-03T05:02:48.771Z,6.97
2023-02-03T05:05:15.921Z,12.73
2023-02-03T05:07:42.885Z,14.10
2023-02-03T05:10:10.779Z,10.15
2023-02-03T05:12:37.727Z,15.85
2023-02-03T05:15:05.517Z,8.00
2023-02-03T05:17:32.548Z,17.67
2023-02-03T05:19:59.585Z,9.18
2023-02-03T05:22:26.517Z,10.98
2023-02-03T05:24:53.476Z,14.20
2023-02-03T05:27:20.405Z,8.40
2023-02-03T05:29:47.450Z,12.77
2023-02-03T05:32:14.385Z,13.85
2023-02-03T05:34:42.354Z,14.15
2023-02-03T05:37:09.450Z,13.65
2023-02-03T05:39:36.532Z,7.40
2023-02-03T05:42:04.401Z,8.63
2023-02-03T05:44:31.401Z,9.98
2023-02-03T05:46:59.689Z,14.05
2023-02-03T05:49:26.801Z,11.20
2023-02-03T05:51:54.917Z,12.65
2023-02-03T05:54:22.514Z,10.52
2023-02-03T05:56:49.569Z,8.77
2023-02-03T05:59:17.022Z,15.40
2023-02-03T06:01:43.964Z,7.55
2023-02-03T06:04:11.326Z,10.95
2023-02-03T06:06:38.466Z,11.18
2023-02-03T06:09:07.572Z,8.45
2023-02-03T06:11:35.961Z,9.40
2023-02-03T06:14:03.579Z,9.35
2023-02-03T06:16:30.653Z,4.90
2023-02-03T06:19:02.064Z,7.78
2023-02-03T06:21:29.355Z,5.68
2023-02-03T06:23:56.697Z,9.18
2023-02-03T06:26:23.993Z,6.78
2023-02-03T06:28:51.056Z,8.40
2023-02-03T06:31:18.135Z,3.92
2023-02-03T06:33:45.157Z,10.38
2023-02-03T06:36:12.284Z,10.98
2023-02-03T06:38:39.208Z,8.63
2023-02-03T06:41:06.249Z,11.85
2023-02-03T06:43:33.833Z,9.98
2023-02-03T06:46:01.014Z,8.00
2023-02-03T06:48:27.985Z,10.10
2023-02-03T06:50:55.748Z,10.05
2023-02-03T06:53:22.696Z,13.68
2023-02-03T06:55:49.704Z,11.60
2023-02-03T06:58:16.679Z,10.48
2023-02-03T07:00:43.896Z,11.80
2023-02-03T07:03:14.224Z,14.23
2023-02-03T07:05:44.306Z,13.55
2023-02-03T07:08:11.359Z,10.00
2023-02-03T07:10:38.308Z,12.20
2023-02-03T07:13:06.702Z,10.50
2023-02-03T07:15:33.981Z,13.07
2023-02-03T07:18:01.156Z,12.50
2023-02-03T07:20:29.561Z,7.95
2023-02-03T07:22:58.435Z,9.50
2023-02-03T07:25:26.099Z,13.07
2023-02-03T07:27:53.477Z,12.18
2023-02-03T07:30:20.873Z,20.67
2023-02-03T07:32:51.434Z,16.27
2023-02-03T07:35:19.128Z,12.80
2023-02-03T07:37:46.132Z,9.85
2023-02-03T07:40:14.145Z,21.13
2023-02-03T07:42:45.821Z,15.48
2023-02-03T07:45:14.705Z,15.38
2023-02-03T07:47:43.405Z,14.35
2023-02-03T07:50:11.721Z,13.82
2023-02-03T07:52:39.132Z,16.48
2023-02-03T07:55:06.380Z,16.58
2023-02-03T07:57:33.347Z,15.50
2023-02-03T08:00:00.368Z,14.25
2023-02-03T08:02:27.366Z,19.52
2023-02-03T08:04:54.447Z,16.40
2023-02-03T08:07:21.482Z,17.45
2023-02-03T08:09:48.466Z,21.05
2023-02-03T08:12:15.520Z,18.55
2023-02-03T08:14:42.510Z,13.32
2023-02-03T08:17:09.413Z,16.33
2023-02-03T08:19:36.521Z,18.20
2023-02-03T08:22:03.526Z,21.95
2023-02-03T08:24:30.613Z,16.92
2023-02-03T08:26:57.638Z,20.55
2023-02-03T08:29:24.669Z,20.73
2023-02-03T08:31:51.747Z,14.88
2023-02-03T08:34:18.781Z,16.70
2023-02-03T08:36:45.786Z,16.15
2023-02-03T08:39:12.840Z,13.23
2023-02-03T08:41:39.876Z,21.60
2023-02-03T08:44:07.011Z,17.88
2023-02-03T08:46:43.459Z,21.58
2023-02-03T08:49:11.433Z,20.77
2023-02-03T08:51:38.477Z,15.60
2023-02-03T08:54:05.898Z,18.15
2023-02-03T08:56:34.265Z,14.70
2023-02-03T08:59:01.465Z,15.90
2023-02-03T09:01:28.821Z,10.80
2023-02-03T09:03:55.975Z,8.48
2023-02-03T09:06:25.867Z,13.02
2023-02-03T09:08:53.233Z,13.77
2023-02-03T09:11:20.205Z,12.88
2023-02-03T09:13:48.691Z,8.60
2023-02-03T09:16:17.955Z,15.30
2023-02-03T09:18:46.213Z,12.98
2023-02-03T09:21:27.321Z,12.95
2023-02-03T09:24:03.050Z,8.82
2023-02-03T09:26:30.132Z,8.73
2023-02-03T09:28:57.111Z,13.20
2023-02-03T09:31:24.277Z,14.18
2023-02-03T09:33:51.386Z,11.35
2023-02-03T09:36:18.411Z,10.00
2023-02-03T09:38:45.409Z,9.43
2023-02-03T09:41:42.714Z,8.77
2023-02-03T09:44:37.470Z,11.90
2023-02-03T09:47:12.817Z,10.55
2023-02-03T09:49:51.035Z,7.20
2023-02-03T09:52:25.912Z,12.50
2023-02-03T09:54:55.793Z,10.55
2023-02-03T09:57:26.184Z,11.00
2023-02-03T09:59:56.497Z,6.80
2023-02-03T10:02:42.288Z,8.18
2023-02-03T10:05:27.961Z,7.20
2023-02-03T10:08:21.039Z,9.13
2023-02-03T10:11:09.765Z,6.82
2023-02-03T10:13:51.891Z,8.55
2023-02-03T10:16:38.753Z,8.07
2023-02-03T10:19:12.996Z,9.75
2023-02-03T10:21:57.581Z,5.65
2023-02-03T10:25:25.010Z,9.43
2023-02-03T10:27:58.866Z,9.70
2023-02-03T10:30:28.563Z,7.00
2023-02-03T10:33:17.812Z,8.95
2023-02-03T10:35:57.498Z,7.80
2023-02-03T10:38:41.790Z,7.97
2023-02-03T10:43:48.894Z,5.20
2023-02-03T10:46:17.863Z,7.28
2023-02-03T10:48:45.009Z,6.20
2023-02-03T10:51:23.515Z,6.20
2023-02-03T10:53:53.509Z,10.02
2023-02-03T10:56:27.236Z,8.23
2023-02-03T10:58:59.363Z,4.95
2023-02-03T11:01:43.787Z,9.68
2023-02-03T11:04:29.627Z,7.82
2023-02-03T11:07:08.776Z,7.90
2023-02-03T11:09:41.437Z,7.50
2023-02-03T11:12:20.935Z,10.88
2023-02-03T11:14:50.434Z,7.95
2023-02-03T11:17:23.557Z,9.82
2023-02-03T11:19:55.358Z,6.03
2023-02-03T11:22:36.438Z,9.20
2023-02-03T11:25:15.907Z,9.43
2023-02-03T11:27:43.543Z,11.50
2023-02-03T11:30:17.524Z,9.40
2023-02-03T11:32:46.813Z,8.63
2023-02-03T11:35:24.037Z,7.60
2023-02-03T11:37:53.916Z,8.73
2023-02-03T11:40:20.857Z,9.20
2023-02-03T11:42:50.542Z,6.53
2023-02-03T11:45:26.854Z,8.75
2023-02-03T11:48:16.816Z,11.98
2023-02-03T11:51:02.569Z,9.40
2023-02-03T11:53:56.978Z,11.68
2023-02-03T11:56:39.400Z,9.68
2023-02-03T11:59:10.093Z,7.82
2023-02-03T12:01:55.192Z,7.93
2023-02-03T12:04:38.507Z,9.90
2023-02-03T12:07:20.378Z,12.27
2023-02-03T12:09:58.996Z,10.07
2023-02-03T12:12:38.011Z,8.52
2023-02-03T12:15:14.238Z,8.80
2023-02-03T12:17:54.299Z,8.50
2023-02-03T12:20:21.395Z,8.98
2023-02-03T12:23:00.594Z,11.57
2023-02-03T12:25:39.223Z,11.85
2023-02-03T12:28:09.073Z,8.57
2023-02-03T12:30:43.258Z,8.13
2023-02-03T12:36:10.208Z,11.00
2023-02-03T12:38:44.045Z,8.85
2023-02-03T12:41:17.368Z,12.43
2023-02-03T12:43:50.679Z,13.82
2023-02-03T12:46:26.879Z,11.15
2023-02-03T12:48:59.926Z,10.45
2023-02-03T12:51:33.246Z,9.60
2023-02-03T12:54:24.117Z,9.40
2023-02-03T12:56:55.371Z,8.23
2023-02-03T12:59:25.688Z,8.82
2023-02-03T13:01:58.813Z,11.85
2023-02-03T13:04:47.250Z,9.77
2023-02-03T13:07:27.397Z,9.90
2023-02-03T13:10:14.770Z,11.43
2023-02-03T13:12:45.833Z,8.43
2023-02-03T13:15:19.093Z,7.57
2023-02-03T13:17:57.852Z,11.00
2023-02-03T13:20:36.679Z,9.75
2023-02-03T13:23:12.538Z,7.38
2023-02-03T13:26:00.769Z,14.10
2023-02-03T13:28:35.865Z,8.63
2023-02-03T13:31:20.241Z,11.48
2023-02-03T13:34:10.564Z,10.15
2023-02-03T13:36:59.154Z,17.10
2023-02-03T13:39:50.866Z,11.57
2023-02-03T13:42:29.967Z,12.00
2023-02-03T13:45:15.362Z,10.50
2023-02-03T13:47:47.744Z,12.80
2023-02-03T13:50:30.641Z,13.35
2023-02-03T13:52:57.840Z,11.57
2023-02-03T13:55:31.003Z,9.15
2023-02-03T13:57:58.549Z,9.57
2023-02-03T14:00:43.536Z,10.13
2023-02-03T14:03:39.814Z,11.30
2023-02-03T14:06:30.851Z,9.90
2023-02-03T14:09:01.069Z,10.23
2023-02-03T14:11:37.881Z,13.70
2023-02-03T14:14:07.957Z,15.85
2023-02-03T14:16:36.913Z,14.02
2023-02-03T14:19:04.918Z,11.63
2023-02-03T14:21:45.237Z,12.27
2023-02-03T14:24:13.428Z,13.38
2023-02-03T14:26:44.954Z,10.55
2023-02-03T14:29:26.776Z,12.50
2023-02-03T14:32:00.365Z,10.48
2023-02-03T14:34:41.386Z,12.75
2023-02-03T14:37:18.983Z,11.38
2023-02-03T14:40:06.736Z,11.52
2023-02-03T14:42:51.949Z,15.77
2023-02-03T14:45:30.047Z,7.68
2023-02-03T14:48:14.288Z,8.60
2023-02-03T14:50:47.754Z,11.60
2023-02-03T14:53:17.840Z,7.65
2023-02-03T14:55:54.623Z,10.65
2023-02-03T14:58:31.148Z,10.52
2023-02-03T15:00:59.224Z,12.15
2023-02-03T15:03:30.123Z,10.32
2023-02-03T15:06:06.305Z,14.77
2023-02-03T15:08:41.927Z,13.00
2023-02-03T15:11:28.991Z,13.93
2023-02-03T15:14:18.223Z,10.02
2023-02-03T15:17:11.237Z,11.05
2023-02-03T15:19:43.185Z,8.50
2023-02-03T15:22:29.876Z,13.73
2023-02-03T15:25:02.831Z,9.70
2023-02-03T15:27:31.222Z,19.73
2023-02-03T15:30:02.096Z,12.45
2023-02-03T15:32:39.474Z,10.30
2023-02-03T15:35:14.758Z,12.00
2023-02-03T15:37:44.007Z,11.55
2023-02-03T15:40:20.743Z,12.82
2023-02-03T15:43:04.527Z,17.33
2023-02-03T15:45:46.093Z,10.80
2023-02-03T15:49:08.822Z,14.15
2023-02-03T15:51:44.164Z,13.50
2023-02-03T15:54:17.553Z,13.48
2023-02-03T15:57:10.770Z,14.27
2023-02-03T16:00:27.328Z,16.95
2023-02-03T16:02:58.141Z,13.18
2023-02-03T16:05:34.404Z,16.30
2023-02-03T16:08:35.207Z,14.52
2023-02-03T16:11:20.149Z,18.23
2023-02-03T16:13:47.193Z,14.52
2023-02-03T16:16:29.065Z,13.95
2023-02-03T16:19:00.018Z,13.35
2023-02-03T16:21:51.730Z,10.77
2023-02-03T16:24:33.817Z,13.07
2023-02-03T16:27:31.039Z,12.98
2023-02-03T16:30:25.528Z,13.93
2023-02-03T16:33:28.236Z,13.20
2023-02-03T16:36:21.358Z,12.20
2023-02-03T16:39:08.007Z,13.77
2023-02-03T16:41:53.810Z,13.82
2023-02-03T16:44:39.053Z,12.55
2023-02-03T16:47:47.417Z,11.75
2023-02-03T16:50:39.079Z,10.50
2023-02-03T16:53:14.433Z,14.55
2023-02-03T16:55:42.772Z,13.15
2023-02-03T16:58:12.518Z,15.35
2023-02-03T17:00:43.475Z,14.70
2023-02-03T17:03:16.205Z,14.90
2023-02-03T17:05:44.894Z,9.70
2023-02-03T17:08:12.775Z,14.88
2023-02-03T17:10:41.762Z,14.93
2023-02-03T17:13:09.267Z,15.90
2023-02-03T17:15:44.929Z,15.10
2023-02-03T17:18:14.931Z,12.98
2023-02-03T17:20:43.451Z,18.35
2023-02-03T17:23:10.988Z,17.30
2023-02-03T17:25:39.102Z,15.23
2023-02-03T17:28:08.994Z,18.88
2023-02-03T17:30:36.373Z,18.23
2023-02-03T17:33:11.839Z,15.27
2023-02-03T17:35:40.584Z,11.75
2023-02-03T17:38:08.228Z,13.57
2023-02-03T17:54:18.382Z,12.30
2023-02-03T17:56:48.375Z,20.63
2023-02-03T17:59:15.640Z,19.70
2023-02-03T18:01:42.945Z,15.15
2023-02-03T18:04:10.686Z,22.25
2023-02-03T18:06:37.739Z,15.02
2023-02-03T18:09:07.426Z,16.40
2023-02-03T18:11:35.792Z,13.70
2023-02-03T18:14:03.191Z,21.13
2023-02-03T18:16:36.159Z,16.20
2023-02-03T18:19:08.925Z,16.75
2023-02-03T18:21:38.652Z,17.75
2023-02-03T18:24:06.017Z,17.63
2023-02-03T18:26:36.926Z,15.82
2023-02-03T18:29:05.474Z,17.88
2023-02-03T18:31:32.828Z,19.00
2023-02-03T18:34:03.799Z,24.00
2023-02-03T18:36:32.442Z,22.85
2023-02-03T18:38:59.456Z,19.02
2023-02-03T18:41:27.126Z,14.43
2023-02-03T18:43:54.339Z,21.17
2023-02-03T18:46:32.036Z,19.60
2023-02-03T18:48:59.345Z,21.15
2023-02-03T18:51:27.328Z,17.48
2023-02-03T18:53:59.206Z,19.83
2023-02-03T18:56:35.129Z,21.40
2023-02-03T18:59:05.872Z,15.23
2023-02-03T19:01:33.306Z,22.63
2023-02-03T19:04:02.900Z,17.25
2023-02-03T19:06:31.790Z,17.45
2023-02-03T19:08:59.553Z,14.15
2023-02-03T19:11:26.902Z,21.02
2023-02-03T19:13:54.061Z,17.90
2023-02-03T19:16:21.501Z,20.13
2023-02-03T19:18:48.704Z,19.73
2023-02-03T19:21:15.992Z,17.02
2023-02-03T19:23:43.244Z,20.75
2023-02-03T19:26:12.097Z,20.17
2023-02-03T19:28:40.109Z,19.98
2023-02-03T19:31:09.446Z,22.92
2023-02-03T19:33:37.653Z,22.02
2023-02-03T19:36:06.085Z,24.27
2023-02-03T19:38:33.673Z,22.85
2023-02-03T19:41:03.887Z,19.38
2023-02-03T19:43:31.467Z,26.33
2023-02-03T19:45:59.090Z,25.77
2023-02-03T19:48:26.176Z,22.65
2023-02-03T19:50:53.199Z,25.17
2023-02-03T19:53:21.583Z,20.00
2023-02-03T19:55:48.618Z,20.73
2023-02-03T19:58:15.696Z,16.98
2023-02-03T20:00:43.812Z,21.50
2023-02-03T20:03:11.115Z,22.45
2023-02-03T20:05:38.423Z,19.73
2023-02-03T20:08:06.032Z,26.05
2023-02-03T20:10:33.397Z,21.15
2023-02-03T20:13:00.808Z,25.70
2023-02-03T20:15:27.960Z,23.40
2023-02-03T20:17:55.129Z,25.83
2023-02-03T20:20:22.502Z,19.67
2023-02-03T20:22:49.689Z,18.67
2023-02-03T20:25:16.912Z,26.50
2023-02-03T20:27:44.090Z,26.90
2023-02-03T20:30:12.041Z,23.73
2023-02-03T20:32:39.696Z,26.15
2023-02-03T20:35:07.017Z,25.90
2023-02-03T20:37:36.152Z,18.92
2023-02-03T20:40:11.521Z,24.92
2023-02-03T20:42:38.547Z,23.88
2023-02-03T20:45:15.455Z,28.05
2023-02-03T20:47:43.472Z,28.15
2023-02-03T20:50:17.239Z,19.48
2023-02-03T20:55:20.961Z,20.73
2023-02-03T20:57:51.372Z,22.17
2023-02-03T21:00:23.461Z,27.27
2023-02-03T21:03:09.174Z,24.40
2023-02-03T21:05:39.204Z,26.20
2023-02-03T21:08:17.987Z,25.02
2023-02-03T21:10:46.943Z,24.65
2023-02-03T21:13:20.623Z,19.90
2023-02-03T21:15:49.837Z,23.83
2023-02-03T21:18:32.306Z,23.35
2023-02-03T21:21:00.231Z,25.73
2023-02-03T21:23:40.056Z,29.52
2023-02-03T21:26:19.584Z,22.02
2023-02-03T21:28:54.991Z,23.58
2023-02-03T21:31:28.395Z,31.27
2023-02-03T21:34:00.676Z,19.63
2023-02-03T21:36:34.082Z,23.00
2023-02-03T21:39:01.593Z,27.02
2023-02-03T21:41:35.460Z,24.05
2023-02-03T21:46:32.954Z,21.00
2023-02-03T21:49:01.573Z,22.23
2023-02-03T21:51:36.666Z,28.00
2023-02-03T21:54:27.040Z,20.42
2023-02-03T21:56:54.550Z,20.80
2023-02-03T21:59:26.108Z,24.50
2023-02-03T22:01:54.055Z,27.08
2023-02-03T22:04:21.381Z,24.20
2023-02-03T22:06:50.351Z,20.60
2023-02-03T22:09:19.986Z,29.83
2023-02-03T22:11:47.345Z,30.65
2023-02-03T22:14:16.521Z,24.00
2023-02-03T22:16:44.661Z,26.52
2023-02-03T22:19:11.788Z,28.42
2023-02-03T22:21:39.243Z,27.58
2023-02-03T22:24:06.722Z,29.25
2023-02-03T22:26:33.792Z,24.23
2023-02-03T22:29:00.833Z,32.85
2023-02-03T22:31:28.102Z,23.65
2023-02-03T22:33:55.097Z,26.98
2023-02-03T22:36:23.575Z,21.58
2023-02-03T22:38:50.917Z,20.75
2023-02-03T22:41:17.943Z,24.20
2023-02-03T22:43:44.871Z,23.00
2023-02-03T22:46:11.950Z,19.75
2023-02-03T22:48:39.022Z,28.65
2023-02-03T22:51:06.231Z,26.00
2023-02-03T22:53:33.320Z,28.40
2023-02-03T22:56:00.353Z,23.98
2023-02-03T22:58:27.356Z,29.77
2023-02-03T23:00:54.826Z,24.40
2023-02-03T23:03:21.993Z,23.58
2023-02-03T23:05:49.056Z,27.75
2023-02-03T23:08:15.996Z,26.00
2023-02-03T23:10:43.021Z,28.52
2023-02-03T23:13:09.977Z,22.63
2023-02-03T23:15:37.057Z,28.15
2023-02-03T23:18:04.148Z,24.80
2023-02-03T23:20:31.433Z,23.83
2023-02-03T23:22:58.853Z,27.25
2023-02-03T23:25:25.956Z,31.55
2023-02-03T23:27:52.967Z,30.02
2023-02-03T23:30:20.313Z,25.60
2023-02-03T23:32:47.329Z,27.95
2023-02-03T23:35:32.636Z,26.63
2023-02-03T23:37:59.702Z,28.08
2023-02-03T23:40:26.733Z,28.08
2023-02-03T23:42:54.792Z,25.98
2023-02-03T23:45:21.759Z,34.72
2023-02-03T23:47:48.851Z,27.52
2023-02-03T23:50:18.982Z,30.80
2023-02-03T23:52:46.744Z,28.35
2023-02-03T23:55:16.657Z,31.33
2023-02-03T23:57:44.087Z,26.55
